APRS [IN73BH], 0 Stunde(n), DL3EL [21:03:08, 0s].
EA1HWX 43.19.87N 005.50.85WIN73BH 3.055km 47°NE19:00:24ZMMDVM MMDVM HS Dual Hat 430.0000/440.0000 CC1
EA1L 43.20.38N 005.51.13WIN73BI 3.549km 31°NNE18:41:02ZWind 033°/003kn, Böen bis 006kn, Temp 21.11c, Regen 0.0mm, letzte 24h 0.3mm, seit 0h 0.3mm, Baro 1010.5h, Hum: 94%(3EA1L-13)
ea1l@ure.es V=13.8V,T=??.?C(2EA1L)
33D00 43.21.63N 005.51.13WIN73BI 5.647km 19°NNE19:01:43Z33-D-00 Protección Civil REMER / Delegación del Gobierno en Asturias
EA1YR 43.22.09N 005.51.86WIN73BI 6.265km N19:01:25ZMMDVM DVS 434.3500/434.3500 CC1
ED1ZAU 43.23.04N 005.52.75WIN73BJ 7.957km 357°N19:02:42ZRD625 438.5000/430.9000 CC1
LEHU 43.22.63N 005.49.57WIN73CJ 8.196km 29°NNE19:00:06ZHelipuerto del HUCA: LEAS 241800Z 06004KT 340V150 9999 SCT024 18/16 Q1013 NOSIG=
EA1IMW 43.14.36N 005.46.93WIN73CF 11.074km 137°SE19:00:41ZGRUPO RADIO GALENA (GRG) 433.4500/433.4500 CC1
EA1ABW 43.24.77N 005.47.77WIN73CJ 12.856km 30°NNE19:00:20ZMMDVM MMDVM HS Hat 439.8250/439.8250 CC1
LEMR 43.25.83N 005.49.60WIN73CK 13.684km 17°NNE19:00:07ZAerodromo de la Morgal: LEAS 241800Z 06004KT 340V150 9999 SCT024 18/16 Q1013 NOSIG=
LEGM 43.26.15N 005.49.84WIN73CK 14.190km 15°NNE19:00:03ZHelipuerto de La Morgal: LEAS 241800Z 06004KT 340V150 9999 SCT024 18/16 Q1013 NOSIG=
EA1HWA 43.12.00N 005.47.40WIN73CE 14.276km 151°SSE19:01:08ZMMDVM MMDVM HS Hat 433.4500/433.4500 CC1
EB1DGC 43.12.60N 005.45.59WIN73CF 14.716km 141°SE19:00:25ZMMDVM MMDVM HS Hat 433.4500/433.4500 CC1
EA1IPU 43.26.21N 005.46.62WIN73CK 15.947km 30°NNE19:00:16ZMMDVM MMDVM HS Hat 439.8000/439.8000 CC1
EA1RCG 43.09.45N 005.49.78WIN73CD 17.598km 168°SSE19:01:12ZGRUPO RADIO GALENA (GRG) 433.4500/433.4500 CC1
ED1ZAY 43.29.47N 005.56.54WIN73AL 20.616km 345°NNW19:02:39ZRD625 438.3000/430.7000 CC1
EA1FLQ 43.22.00N 005.36.35WIN73EI 22.569km 74°ENE19:01:30ZMMDVM DVMega 439.9750/439.9750 CC1
EA1AQK 43.16.49N 005.35.99WIN73EG 22.640km 101°E19:00:26ZMMDVM MMDVM HS Hat 439.8500/439.8500 CC1
ED1ZAS 43.27.52N 005.40.17WIN73DL 23.236km 45°NE19:02:38ZRD985 438.2250/430.6250 CC1
ED1ZAE 43.27.99N 005.40.54WIN73DL 23.496km 43°NE18:45:24Z2m Voice 145.5875 -0.600 Mhz(3ED1ZAE-C)
WIDE3-3 ESAS3-3 IN73DL WWW.EA1URG.ORG(2ED1ZAE-3)
EA1AHA 43.32.72N 005.54.38WIN73BN 26.028km 354°N19:01:10ZWind 000°/000kn, Böen bis 000kn, Temp 19.44c, Regen 0.0mm, letzte 24h 0.0mm, seit 0h 0.0mm, Baro 1013.7h, Hum: 80%(3EA1AHA-13)
ED1ZAD 43.07.90N 005.38.52WIN73ED 27.555km 137°SE18:48:36ZED1ZAD-3 APRS Digi/Igate(3ED1ZAD-3)
EB1TK 43.32.22N 005.42.32WIN73DM 28.488km 29°NNE19:00:23ZWind 012°/002kn, Böen bis 004kn, Temp 18.89c, Regen 0.0mm, letzte 24h 0.0mm, seit 0h 0.0mm, Baro 1015.2h, Hum: 89%(3EB1TK-13)
EA1FFA 43.31.53N 005.40.64WIN73DM 28.574km 34°NE19:02:22ZMMDVM MMDVM HS Hat 438.8000/438.8000 CC1
EA1DZR 43.31.47N 005.40.00WIN73DM 28.950km 35°NE19:02:25ZMMDVM DVMega 431.1000/431.1000 CC1
EA1IEJ 43.31.81N 005.40.64WIN73DM 29.005km 33°NNE19:01:39ZMMDVM MMDVM HS Hat 438.8500/438.8500 CC6
EA1DHE 43.33.98N 005.58.57WIN73AN 29.396km 344°NNW19:01:53ZMMDVM DVS 434.3500/434.3500 CC1
LEEL 43.32.98N 005.41.71WIN73DN 30.094km 29°NNE19:00:06ZHelipuerto de El Musel: LEAS 241800Z 06004KT 340V150 9999 SCT024 18/16 Q1013 NOSIG=
EB1GEM 43.30.00N 005.36.07WIN73EM 30.406km 47°NE19:02:34ZWX3in1Plus2.0 U=13.3V,T=??.?C/??.?F(3EB1GEM-3)
EA1HJA 43.28.10N 005.30.45WIN73FL 34.376km 60°ENE18:52:43ZEA1HJA@URE.ES
EA1HJA@URE.ES(2EA1HJA-2)
EA1FHR 43.28.72N 005.26.41WIN73GL 39.677km 62°ENE19:01:17ZMMDVM MMDVM HS Hat 439.1500/439.1500 CC1
EA1JAY 43.29.33N 005.26.78WIN73GL 39.800km 60°ENE19:00:10Z434.525MHz Nodo TETRA DMO(3EA1JAY-4)
Transmission ended(2EA1JAY-7)
EA1JAY(2EA1JAY-2)
EA1HWD 43.28.96N 005.26.30WIN73GL 40.028km 62°ENE19:00:23Z144.575FM Local frecuency VHF. 434.2500/434.2500 CC1
LETN 43.20.05N 006.22.69WIN63TI 40.781km 274°W19:00:03ZAerodromo de La Curiscada (Tineo): LEAS 241800Z 06004KT 340V150 9999 SCT024 18/16 Q1013 NOSIG=
EC1KV 43.34.01N 006.16.01WIN63UN 42.427km 312°NW18:42:04ZALBUERNE(3EC1KV-1)

aprs.pl 5.0.011w DL3EL © 2006-2021 [873659]